Time;durP1;ratioP1;P1;durP2;ratioP2;P2;SDS_P1;SDS_P2;PMS_P1;PMS_P2;Temp;Humidity;BMP_temperature;BMP_pressure;BME280_temperature;BME280_humidity;BME280_pressure;Samples;Min_cycle;Max_cycle;Signal;HPM_P1;HPM_P2
2022/11/30 00:00:54;;;;;;;60.78;19.10;;;7.00;99.90;;;;;;4975052;28;20027;-59
2022/11/30 00:03:21;;;;;;;58.97;20.27;;;7.00;99.90;;;;;;4976266;28;20026;-60
2022/11/30 00:05:48;;;;;;;63.17;20.33;;;6.90;99.90;;;;;;4974131;28;20034;-60
2022/11/30 00:08:14;;;;;;;56.92;19.35;;;6.90;99.90;;;;;;4980183;28;20030;-59
2022/11/30 00:10:41;;;;;;;59.50;20.10;;;6.90;99.90;;;;;;4974445;28;20037;-61
2022/11/30 00:13:07;;;;;;;72.45;20.23;;;6.90;99.90;;;;;;4975018;28;20375;-59
2022/11/30 00:15:33;;;;;;;68.03;20.65;;;6.90;99.90;;;;;;4979626;28;20026;-60
2022/11/30 00:17:59;;;;;;;62.80;21.17;;;7.00;99.90;;;;;;4970939;28;20034;-60
2022/11/30 00:20:27;;;;;;;73.18;20.85;;;7.00;99.90;;;;;;4972664;28;20041;-59
2022/11/30 00:22:54;;;;;;;74.45;19.92;;;6.90;99.90;;;;;;4965829;28;20029;-60
2022/11/30 00:25:20;;;;;;;64.57;19.35;;;6.90;99.90;;;;;;4971142;28;20089;-60
2022/11/30 00:27:45;;;;;;;65.03;19.77;;;6.80;99.90;;;;;;4970613;28;20426;-60
2022/11/30 00:30:12;;;;;;;68.85;18.17;;;6.80;99.90;;;;;;4976545;28;20050;-60
2022/11/30 00:32:38;;;;;;;57.10;16.83;;;6.70;99.90;;;;;;4974812;28;20088;-60
2022/11/30 00:35:04;;;;;;;72.97;17.33;;;6.80;99.90;;;;;;4971252;28;20097;-59
2022/11/30 00:37:29;;;;;;;62.63;16.05;;;6.80;99.90;;;;;;4979245;28;20038;-60
2022/11/30 00:39:55;;;;;;;75.03;15.77;;;6.80;99.90;;;;;;4975103;28;20023;-59
2022/11/30 00:42:21;;;;;;;64.32;16.58;;;6.70;99.90;;;;;;4965868;28;20070;-61
2022/11/30 00:44:47;;;;;;;63.55;15.13;;;6.80;99.90;;;;;;4968563;28;20039;-60
2022/11/30 00:47:12;;;;;;;43.67;12.75;;;6.70;99.90;;;;;;4970731;28;20549;-60
2022/11/30 00:49:39;;;;;;;58.58;14.02;;;6.60;99.90;;;;;;4971364;28;20069;-60
2022/11/30 00:52:05;;;;;;;54.53;13.73;;;6.60;99.90;;;;;;4974145;28;20487;-60
2022/11/30 00:54:31;;;;;;;42.53;14.30;;;6.50;99.90;;;;;;4973390;28;20490;-60
2022/11/30 00:56:56;;;;;;;61.55;15.63;;;6.50;99.90;;;;;;4976117;28;20031;-60
2022/11/30 00:59:22;;;;;;;64.05;15.50;;;6.50;99.90;;;;;;4981481;28;20040;-59
2022/11/30 01:01:48;;;;;;;55.97;14.80;;;6.50;99.90;;;;;;4981959;28;20030;-61
2022/11/30 01:04:14;;;;;;;49.13;14.27;;;6.50;99.90;;;;;;4974939;28;20126;-60
2022/11/30 01:06:39;;;;;;;50.53;14.48;;;6.50;99.90;;;;;;4986869;28;20470;-61
2022/11/30 01:09:05;;;;;;;59.35;13.32;;;6.50;99.90;;;;;;4977314;28;20471;-60
2022/11/30 01:11:31;;;;;;;48.30;13.38;;;6.40;99.90;;;;;;4985258;28;20072;-60
2022/11/30 01:13:59;;;;;;;54.30;13.40;;;6.40;99.90;;;;;;4974994;28;20106;-60
2022/11/30 01:16:27;;;;;;;47.00;12.38;;;6.30;99.90;;;;;;4980975;28;20402;-59
2022/11/30 01:18:53;;;;;;;49.42;12.55;;;6.10;99.90;;;;;;4969046;28;20027;-60
2022/11/30 01:21:23;;;;;;;48.95;14.05;;;6.00;99.90;;;;;;4979917;28;20054;-60
2022/11/30 01:23:50;;;;;;;44.13;13.90;;;6.00;99.90;;;;;;4977365;28;20027;-60
2022/11/30 01:26:16;;;;;;;48.72;13.98;;;6.00;99.90;;;;;;4976752;28;20387;-60
2022/11/30 01:28:43;;;;;;;49.25;13.93;;;6.10;99.90;;;;;;4983198;28;20026;-60
2022/11/30 01:31:11;;;;;;;47.08;13.25;;;6.10;99.90;;;;;;4982934;28;20042;-59
2022/11/30 01:33:38;;;;;;;47.92;15.10;;;6.20;99.90;;;;;;4972561;28;20113;-60
2022/11/30 01:36:10;;;;;;;50.53;15.13;;;6.30;99.90;;;;;;4971390;28;20081;-59
2022/11/30 01:38:41;;;;;;;50.63;14.88;;;6.30;99.90;;;;;;4970854;28;20019;-59
2022/11/30 01:41:09;;;;;;;39.17;12.23;;;6.40;99.90;;;;;;4974467;28;20113;-60
2022/11/30 01:43:49;;;;;;;52.00;15.40;;;6.40;99.90;;;;;;4972044;28;20127;-60
2022/11/30 01:46:37;;;;;;;72.00;15.75;;;6.50;99.90;;;;;;4979247;28;20052;-60
2022/11/30 01:49:08;;;;;;;58.25;14.85;;;6.40;99.90;;;;;;4967562;28;20347;-59
2022/11/30 01:51:47;;;;;;;53.70;15.25;;;6.40;99.90;;;;;;4977977;28;20026;-59
2022/11/30 01:54:17;;;;;;;52.83;16.35;;;6.40;99.90;;;;;;4967824;28;20031;-60
2022/11/30 01:56:51;;;;;;;46.55;15.73;;;6.50;99.90;;;;;;4968492;28;20035;-61
2022/11/30 01:59:19;;;;;;;52.97;15.13;;;6.50;99.90;;;;;;4974844;28;20406;-60
2022/11/30 02:01:46;;;;;;;51.67;16.17;;;6.50;99.90;;;;;;4981199;28;20057;-59
2022/11/30 02:04:18;;;;;;;49.17;15.30;;;6.50;99.90;;;;;;4975327;28;20150;-59
2022/11/30 02:06:46;;;;;;;47.45;15.55;;;6.50;99.90;;;;;;4988696;28;20045;-60
2022/11/30 02:09:13;;;;;;;48.97;15.77;;;6.50;99.90;;;;;;4972296;28;20105;-60
2022/11/30 02:11:39;;;;;;;50.97;15.57;;;6.60;99.90;;;;;;4975133;28;20179;-60
2022/11/30 02:14:13;;;;;;;46.63;15.95;;;6.70;99.90;;;;;;4971359;28;20066;-60
2022/11/30 02:17:03;;;;;;;50.95;15.98;;;6.70;99.90;;;;;;4981089;28;20034;-60
2022/11/30 02:19:59;;;;;;;52.75;14.95;;;6.70;99.90;;;;;;4980663;28;20503;-60
2022/11/30 02:22:40;;;;;;;50.47;15.15;;;6.70;99.90;;;;;;4973691;28;20562;-60
2022/11/30 02:25:09;;;;;;;58.95;15.90;;;6.70;99.90;;;;;;4975972;28;20122;-60
2022/11/30 02:27:50;;;;;;;50.88;15.05;;;6.70;99.90;;;;;;4973968;28;20446;-60
2022/11/30 02:30:18;;;;;;;54.70;16.05;;;6.70;99.90;;;;;;4971657;28;20471;-59
2022/11/30 02:32:59;;;;;;;54.78;16.92;;;6.80;99.90;;;;;;4973168;28;20034;-61
2022/11/30 02:35:31;;;;;;;48.10;16.55;;;6.80;99.90;;;;;;4975132;28;20027;-59
2022/11/30 02:37:58;;;;;;;53.50;16.88;;;6.80;99.90;;;;;;4974860;28;20041;-60
2022/11/30 02:40:24;;;;;;;48.63;16.27;;;6.70;99.90;;;;;;4981165;28;20030;-60
2022/11/30 02:42:51;;;;;;;41.22;15.75;;;6.80;99.90;;;;;;4975671;28;20052;-61
2022/11/30 02:45:33;;;;;;;49.35;16.38;;;6.80;99.90;;;;;;4982197;28;20085;-60
2022/11/30 02:48:10;;;;;;;46.53;15.38;;;6.80;99.90;;;;;;4981338;28;20041;-60
2022/11/30 02:50:47;;;;;;;45.75;15.93;;;6.90;99.90;;;;;;4967781;28;20121;-60
2022/11/30 02:53:13;;;;;;;40.90;15.20;;;6.90;99.90;;;;;;4984629;28;20042;-60
2022/11/30 02:55:39;;;;;;;42.75;14.70;;;6.90;99.90;;;;;;4983765;28;20141;-61
2022/11/30 02:58:05;;;;;;;47.13;16.58;;;6.90;99.90;;;;;;4990693;28;20019;-59
2022/11/30 03:00:31;;;;;;;41.60;14.48;;;6.90;99.90;;;;;;4978874;28;21301;-59
2022/11/30 03:02:57;;;;;;;46.88;16.05;;;6.90;99.90;;;;;;4980067;28;20023;-60
2022/11/30 03:05:23;;;;;;;43.28;16.33;;;6.90;99.90;;;;;;4978890;28;20111;-59
2022/11/30 03:07:48;;;;;;;38.30;14.55;;;7.00;99.90;;;;;;4979483;28;20031;-59
2022/11/30 03:10:14;;;;;;;45.55;15.40;;;7.00;99.90;;;;;;4975312;28;20566;-60
2022/11/30 03:12:40;;;;;;;34.88;14.32;;;7.00;99.90;;;;;;4986566;28;20084;-60
2022/11/30 03:15:06;;;;;;;40.85;14.70;;;6.90;99.90;;;;;;4978435;28;20061;-60
2022/11/30 03:17:32;;;;;;;41.47;15.63;;;7.00;99.90;;;;;;4989136;28;20019;-60
2022/11/30 03:19:58;;;;;;;35.53;15.55;;;6.90;99.90;;;;;;4965264;28;21699;-61
2022/11/30 03:22:23;;;;;;;42.95;15.45;;;6.90;99.90;;;;;;4981822;28;20034;-60
2022/11/30 03:24:49;;;;;;;33.65;14.15;;;7.00;99.90;;;;;;4979488;28;20114;-60
2022/11/30 03:27:15;;;;;;;43.20;14.25;;;7.00;99.90;;;;;;4986945;28;20038;-60
2022/11/30 03:29:41;;;;;;;49.08;15.93;;;7.00;99.90;;;;;;4980037;28;20387;-60
2022/11/30 03:32:07;;;;;;;41.28;15.23;;;7.00;99.90;;;;;;4975652;28;20510;-60
2022/11/30 03:34:33;;;;;;;35.70;14.93;;;7.00;99.90;;;;;;4975173;28;20038;-59
2022/11/30 03:36:58;;;;;;;35.80;15.07;;;7.00;99.90;;;;;;4973992;28;20026;-59
2022/11/30 03:39:24;;;;;;;44.88;15.80;;;7.00;99.90;;;;;;4985478;28;20117;-60
2022/11/30 03:41:50;;;;;;;41.53;15.32;;;7.00;99.90;;;;;;4979154;28;20042;-60
2022/11/30 03:44:16;;;;;;;42.03;13.75;;;7.00;99.90;;;;;;4978643;28;20081;-59
2022/11/30 03:46:42;;;;;;;45.42;15.55;;;7.00;99.90;;;;;;4970066;28;20483;-61
2022/11/30 03:49:08;;;;;;;39.58;14.25;;;7.00;99.90;;;;;;4974865;28;20045;-60
2022/11/30 03:51:34;;;;;;;46.55;16.13;;;7.00;99.90;;;;;;4980196;28;20474;-60
2022/11/30 03:54:00;;;;;;;46.70;16.02;;;7.10;99.90;;;;;;4973693;28;20030;-60
2022/11/30 03:56:26;;;;;;;43.92;15.75;;;7.00;99.90;;;;;;4974955;28;20022;-60
2022/11/30 03:58:51;;;;;;;45.35;15.40;;;7.00;99.90;;;;;;4984983;28;20486;-60
2022/11/30 04:01:22;;;;;;;44.03;15.52;;;7.00;99.90;;;;;;4984647;28;20027;-60
2022/11/30 04:03:51;;;;;;;35.83;15.77;;;7.10;99.90;;;;;;4975175;28;20032;-60
2022/11/30 04:06:18;;;;;;;42.95;16.05;;;7.00;99.90;;;;;;4983533;28;20041;-60
2022/11/30 04:08:44;;;;;;;37.42;15.13;;;7.10;99.90;;;;;;4985348;28;20035;-61
2022/11/30 04:11:10;;;;;;;46.78;16.23;;;7.00;99.90;;;;;;4974100;28;20379;-60
2022/11/30 04:13:38;;;;;;;42.22;15.52;;;7.00;99.90;;;;;;4978784;28;20482;-60
2022/11/30 04:16:04;;;;;;;50.55;16.35;;;7.10;99.90;;;;;;4983778;28;20035;-60
2022/11/30 04:18:31;;;;;;;42.10;14.88;;;7.10;99.90;;;;;;4976091;28;20027;-61
2022/11/30 04:20:58;;;;;;;46.78;15.48;;;7.10;99.90;;;;;;4980875;28;20088;-60
2022/11/30 04:23:28;;;;;;;39.80;15.75;;;7.10;99.90;;;;;;4977084;28;20034;-60
2022/11/30 04:25:53;;;;;;;42.92;15.60;;;7.10;99.90;;;;;;4976844;28;20038;-60
2022/11/30 04:28:20;;;;;;;38.20;15.35;;;7.10;99.90;;;;;;4979994;28;20026;-61
2022/11/30 04:30:46;;;;;;;43.90;13.98;;;7.10;99.90;;;;;;4981569;28;20088;-62
2022/11/30 04:33:13;;;;;;;39.90;14.48;;;7.10;99.90;;;;;;4981098;28;20039;-60
2022/11/30 04:35:53;;;;;;;38.97;14.77;;;7.10;99.90;;;;;;4978536;28;20054;-61
2022/11/30 04:38:19;;;;;;;40.55;15.52;;;7.10;99.90;;;;;;4976097;28;20483;-60
2022/11/30 04:40:45;;;;;;;39.53;15.05;;;7.10;99.90;;;;;;4975284;28;20037;-60
2022/11/30 04:43:11;;;;;;;41.67;14.88;;;7.10;99.90;;;;;;4978064;28;20124;-59
2022/11/30 04:45:37;;;;;;;51.42;16.13;;;7.10;99.90;;;;;;4967259;28;20030;-59
2022/11/30 04:48:04;;;;;;;40.58;15.50;;;7.10;99.90;;;;;;4990767;28;20026;-60
2022/11/30 04:50:30;;;;;;;44.17;14.90;;;7.10;99.90;;;;;;4975316;28;20045;-60
2022/11/30 04:52:56;;;;;;;47.30;15.63;;;7.20;99.90;;;;;;4982006;28;20027;-59
2022/11/30 04:55:22;;;;;;;45.08;15.10;;;7.20;99.90;;;;;;4980009;28;20556;-59
2022/11/30 04:57:48;;;;;;;38.78;14.82;;;7.20;99.90;;;;;;4981913;28;20910;-59
2022/11/30 05:00:15;;;;;;;43.15;14.35;;;7.20;99.90;;;;;;4976014;28;20394;-59
2022/11/30 05:02:42;;;;;;;43.83;16.08;;;7.20;99.90;;;;;;4978758;28;20026;-59
2022/11/30 05:05:08;;;;;;;48.20;17.60;;;7.20;99.90;;;;;;4979108;28;20033;-59
2022/11/30 05:07:34;;;;;;;45.47;15.00;;;7.20;99.90;;;;;;4979662;28;20383;-60
2022/11/30 05:10:00;;;;;;;43.40;16.40;;;7.30;99.90;;;;;;4973561;28;20538;-59
2022/11/30 05:12:25;;;;;;;42.90;15.32;;;7.30;99.90;;;;;;4977711;28;20030;-60
2022/11/30 05:14:51;;;;;;;41.22;14.57;;;7.20;99.90;;;;;;4981295;28;20038;-61
2022/11/30 05:17:17;;;;;;;45.47;15.93;;;7.20;99.90;;;;;;4974219;28;20106;-60
2022/11/30 05:19:43;;;;;;;47.55;15.52;;;7.20;99.90;;;;;;4980366;28;20029;-60
2022/11/30 05:22:08;;;;;;;46.75;16.52;;;7.20;99.90;;;;;;4981376;28;20065;-61
2022/11/30 05:24:34;;;;;;;40.97;15.82;;;7.20;99.90;;;;;;4971304;28;20522;-60
2022/11/30 05:27:00;;;;;;;38.03;16.02;;;7.20;99.90;;;;;;4984073;28;20499;-60
2022/11/30 05:29:25;;;;;;;35.75;13.85;;;7.20;99.90;;;;;;4981717;28;20487;-60
2022/11/30 05:31:51;;;;;;;36.63;14.23;;;7.20;99.90;;;;;;4984482;28;20470;-60
2022/11/30 05:34:17;;;;;;;48.08;14.35;;;7.20;99.90;;;;;;4979881;28;20045;-60
2022/11/30 05:36:43;;;;;;;44.63;14.40;;;7.20;99.90;;;;;;4979056;28;20034;-59
2022/11/30 05:39:08;;;;;;;35.35;13.32;;;7.20;99.90;;;;;;4977246;28;20031;-61
2022/11/30 05:41:34;;;;;;;41.55;14.80;;;7.10;99.90;;;;;;4976285;28;20513;-61
2022/11/30 05:44:00;;;;;;;32.42;13.50;;;7.10;99.90;;;;;;4985048;28;20055;-60
2022/11/30 05:46:26;;;;;;;42.72;14.52;;;7.10;99.90;;;;;;4981730;28;20057;-60
2022/11/30 05:48:52;;;;;;;38.90;13.52;;;7.10;99.90;;;;;;4983926;28;20463;-60
2022/11/30 05:51:19;;;;;;;45.88;15.52;;;7.00;99.90;;;;;;4990341;28;20069;-60
2022/11/30 05:53:45;;;;;;;38.20;14.15;;;6.80;99.90;;;;;;4973278;28;20042;-60
2022/11/30 05:56:17;;;;;;;36.35;12.75;;;6.70;99.90;;;;;;4978458;28;20035;-60
2022/11/30 05:58:44;;;;;;;32.78;13.27;;;6.60;99.90;;;;;;4976190;28;20121;-60
2022/11/30 06:01:24;;;;;;;33.42;12.18;;;6.40;99.90;;;;;;4974790;28;20027;-60
2022/11/30 06:03:51;;;;;;;30.75;11.70;;;6.30;99.90;;;;;;4971647;28;20578;-60
2022/11/30 06:06:17;;;;;;;34.28;11.95;;;6.30;99.90;;;;;;4975144;28;20545;-60
2022/11/30 06:08:44;;;;;;;28.38;12.32;;;6.20;99.90;;;;;;4979535;28;20113;-60
2022/11/30 06:11:10;;;;;;;35.97;11.98;;;6.20;99.90;;;;;;4974119;28;20550;-61
2022/11/30 06:13:36;;;;;;;35.20;13.63;;;6.20;99.90;;;;;;4983882;28;20114;-61
2022/11/30 06:16:02;;;;;;;31.13;11.77;;;6.10;99.90;;;;;;4979659;28;20475;-60
2022/11/30 06:18:29;;;;;;;28.98;10.70;;;6.10;99.90;;;;;;4987301;28;20057;-60
2022/11/30 06:21:04;;;;;;;33.13;12.13;;;6.10;99.90;;;;;;4981265;28;20502;-60
2022/11/30 06:23:30;;;;;;;38.15;12.68;;;6.20;99.90;;;;;;4972409;28;20031;-61
2022/11/30 06:25:56;;;;;;;41.75;13.20;;;6.30;99.90;;;;;;4977748;28;20054;-59
2022/11/30 06:28:23;;;;;;;42.42;14.77;;;6.30;99.90;;;;;;4982795;28;20030;-60
2022/11/30 06:30:49;;;;;;;41.63;15.27;;;6.30;99.90;;;;;;4974068;28;20031;-59
2022/11/30 06:33:15;;;;;;;40.22;13.68;;;6.40;99.90;;;;;;4981271;28;20368;-60
2022/11/30 06:35:45;;;;;;;46.55;14.02;;;6.50;99.90;;;;;;4985174;28;20030;-60
2022/11/30 06:38:11;;;;;;;62.97;16.23;;;6.60;99.90;;;;;;4986070;28;20029;-61
2022/11/30 06:40:37;;;;;;;37.50;13.07;;;6.60;99.90;;;;;;4981323;28;20023;-61
2022/11/30 06:43:03;;;;;;;37.15;13.43;;;6.50;99.90;;;;;;4976803;28;20096;-60
2022/11/30 06:45:30;;;;;;;43.72;14.38;;;6.50;99.90;;;;;;4972679;28;20129;-60
2022/11/30 06:47:56;;;;;;;41.65;13.43;;;6.40;99.90;;;;;;4982081;28;20076;-61
2022/11/30 06:50:23;;;;;;;35.13;13.07;;;6.50;99.90;;;;;;4981535;28;20049;-61
2022/11/30 06:52:49;;;;;;;34.17;13.70;;;6.60;99.90;;;;;;4980082;28;20173;-61
2022/11/30 06:55:14;;;;;;;33.50;11.98;;;6.60;99.90;;;;;;4979644;28;20538;-60
2022/11/30 06:57:40;;;;;;;39.28;13.75;;;6.70;99.90;;;;;;4973751;28;20619;-60
2022/11/30 07:00:07;;;;;;;41.13;14.13;;;6.70;99.90;;;;;;4972374;28;20034;-60
2022/11/30 07:02:33;;;;;;;34.17;13.10;;;6.80;99.90;;;;;;4972633;28;20062;-60
2022/11/30 07:04:58;;;;;;;31.70;11.45;;;6.90;99.90;;;;;;4974202;28;20108;-58
2022/11/30 07:07:26;;;;;;;34.00;13.25;;;7.10;99.90;;;;;;4979654;28;20058;-61
2022/11/30 07:09:52;;;;;;;30.48;12.20;;;7.10;99.90;;;;;;4978271;28;20113;-60
2022/11/30 07:12:18;;;;;;;29.52;11.52;;;7.20;99.90;;;;;;4973061;28;20170;-60
2022/11/30 07:14:44;;;;;;;35.80;13.68;;;7.20;99.90;;;;;;4978682;28;20054;-61
2022/11/30 07:17:09;;;;;;;33.50;13.00;;;7.30;99.90;;;;;;4988193;28;20031;-60
2022/11/30 07:19:35;;;;;;;29.90;13.32;;;7.40;99.90;;;;;;4979068;28;20018;-60
2022/11/30 07:22:01;;;;;;;32.78;12.98;;;7.40;99.90;;;;;;4986362;28;20113;-60
2022/11/30 07:27:11;;;;;;;33.08;13.00;;;7.40;99.90;;;;;;4982623;28;20053;-62
2022/11/30 07:29:37;;;;;;;33.72;12.57;;;7.50;99.90;;;;;;4978381;28;20038;-60
2022/11/30 07:32:03;;;;;;;29.88;12.73;;;7.50;99.90;;;;;;4985640;28;20030;-61
2022/11/30 07:34:28;;;;;;;31.02;12.68;;;7.50;99.90;;;;;;4977244;28;20037;-61
2022/11/30 07:36:54;;;;;;;32.38;12.20;;;7.50;99.90;;;;;;4978024;28;20027;-60
2022/11/30 07:39:20;;;;;;;28.85;12.50;;;7.50;99.90;;;;;;4981010;28;20462;-61
2022/11/30 07:41:46;;;;;;;28.73;12.43;;;7.50;99.90;;;;;;4970585;28;20031;-60
2022/11/30 07:44:11;;;;;;;25.50;11.35;;;7.50;99.90;;;;;;4981922;28;20429;-60
2022/11/30 07:46:38;;;;;;;27.70;11.45;;;7.50;99.90;;;;;;4978819;28;20094;-60
2022/11/30 07:49:04;;;;;;;23.27;10.80;;;7.50;99.90;;;;;;4978741;28;20383;-60
2022/11/30 07:51:31;;;;;;;29.52;11.40;;;7.50;99.90;;;;;;4981913;28;20038;-60
2022/11/30 07:53:58;;;;;;;26.55;11.70;;;7.40;99.90;;;;;;4985251;28;20022;-60
2022/11/30 07:56:25;;;;;;;30.05;11.82;;;7.50;99.90;;;;;;4977297;28;20037;-60
2022/11/30 07:58:56;;;;;;;24.88;10.73;;;7.50;99.90;;;;;;4961481;28;20034;-61
2022/11/30 08:01:23;;;;;;;25.30;11.73;;;7.50;99.90;;;;;;4970671;28;20509;-60
2022/11/30 08:03:50;;;;;;;25.33;11.32;;;7.50;99.90;;;;;;4970077;28;20495;-60
2022/11/30 08:06:24;;;;;;;24.95;11.85;;;7.60;99.90;;;;;;4969865;28;20118;-61
2022/11/30 08:08:52;;;;;;;26.67;12.05;;;7.70;99.90;;;;;;4969222;28;20094;-60
2022/11/30 08:11:24;;;;;;;27.80;11.02;;;7.70;99.90;;;;;;4969135;28;20104;-62
2022/11/30 08:13:51;;;;;;;23.92;10.60;;;7.70;99.90;;;;;;4972177;28;20023;-61
2022/11/30 08:16:20;;;;;;;21.15;9.93;;;7.70;99.90;;;;;;4978652;28;20030;-60
2022/11/30 08:18:46;;;;;;;31.27;11.70;;;7.70;99.90;;;;;;4969167;28;20137;-61
2022/11/30 08:21:14;;;;;;;23.85;10.90;;;7.70;99.90;;;;;;4964271;28;20035;-62
2022/11/30 08:23:42;;;;;;;24.50;10.75;;;7.80;99.90;;;;;;4976340;28;20030;-61
2022/11/30 08:26:19;;;;;;;25.65;10.95;;;7.80;99.90;;;;;;4962824;28;20059;-61
2022/11/30 08:28:47;;;;;;;22.88;10.90;;;7.80;99.90;;;;;;4968187;28;20025;-61
2022/11/30 08:31:18;;;;;;;26.40;9.95;;;7.80;99.90;;;;;;4973870;28;20043;-61
2022/11/30 08:33:44;;;;;;;24.25;10.85;;;7.80;99.90;;;;;;4963817;28;20034;-61
2022/11/30 08:36:12;;;;;;;24.88;10.35;;;7.90;99.90;;;;;;4969573;28;20165;-61
2022/11/30 08:38:40;;;;;;;21.77;11.57;;;7.90;99.90;;;;;;4970059;28;20035;-62
2022/11/30 08:41:06;;;;;;;24.95;10.77;;;7.90;99.90;;;;;;4972153;28;20457;-62
2022/11/30 08:43:33;;;;;;;19.58;9.85;;;7.90;99.90;;;;;;4973629;28;20058;-61
2022/11/30 08:46:01;;;;;;;26.80;10.65;;;8.00;99.90;;;;;;4971289;28;20081;-61
2022/11/30 08:48:26;;;;;;;24.17;11.65;;;7.90;99.90;;;;;;4974119;28;20434;-61
2022/11/30 08:50:52;;;;;;;19.50;10.88;;;7.90;99.90;;;;;;4969457;28;20043;-60
2022/11/30 08:53:18;;;;;;;26.55;10.52;;;8.00;99.90;;;;;;4969086;28;20406;-60
2022/11/30 08:55:57;;;;;;;23.45;9.85;;;8.00;99.90;;;;;;4972496;28;20035;-61
2022/11/30 08:58:23;;;;;;;21.42;9.57;;;7.90;99.90;;;;;;4961054;28;20031;-59
2022/11/30 09:00:49;;;;;;;29.02;13.90;;;7.90;99.90;;;;;;4962724;28;20034;-60
2022/11/30 09:03:15;;;;;;;26.95;10.65;;;7.90;99.90;;;;;;4962266;28;20356;-60
2022/11/30 09:05:40;;;;;;;25.60;10.98;;;8.00;99.90;;;;;;4964348;28;20141;-61
2022/11/30 09:08:06;;;;;;;20.33;9.15;;;8.00;99.90;;;;;;4968664;28;20060;-61
2022/11/30 09:10:32;;;;;;;27.77;10.63;;;8.00;99.90;;;;;;4965761;28;20047;-61
2022/11/30 09:12:58;;;;;;;22.70;10.05;;;8.10;99.90;;;;;;4963530;28;20511;-61
2022/11/30 09:15:23;;;;;;;23.27;11.80;;;8.10;99.90;;;;;;4970859;28;20423;-60
2022/11/30 09:17:49;;;;;;;25.65;11.38;;;8.10;99.90;;;;;;4967851;28;20040;-60
2022/11/30 09:20:15;;;;;;;23.05;9.95;;;8.00;99.90;;;;;;4967268;28;20027;-59
2022/11/30 09:22:41;;;;;;;24.70;10.07;;;7.90;99.90;;;;;;4972735;28;20031;-60
2022/11/30 09:25:08;;;;;;;24.13;9.52;;;7.80;99.90;;;;;;4975818;28;20041;-61
2022/11/30 09:27:34;;;;;;;20.90;10.57;;;7.80;99.90;;;;;;4971859;28;21522;-59
2022/11/30 09:30:01;;;;;;;23.15;9.82;;;7.80;99.90;;;;;;4971073;28;20037;-59
2022/11/30 09:32:28;;;;;;;22.25;9.60;;;7.70;99.90;;;;;;4971668;28;20046;-61
2022/11/30 09:34:54;;;;;;;22.05;9.68;;;7.70;99.90;;;;;;4973036;28;20030;-61
2022/11/30 09:37:21;;;;;;;23.63;10.02;;;7.70;99.90;;;;;;4975002;28;20034;-60
2022/11/30 09:39:46;;;;;;;17.60;9.60;;;7.80;99.90;;;;;;4969787;28;20033;-60
2022/11/30 09:42:40;;;;;;;19.60;9.48;;;7.90;99.90;;;;;;4968128;28;20077;-61
2022/11/30 09:45:27;;;;;;;20.85;9.75;;;8.00;99.90;;;;;;4974292;28;20070;-61
2022/11/30 09:48:04;;;;;;;22.98;8.80;;;8.10;99.90;;;;;;4970867;28;20035;-61
2022/11/30 09:50:36;;;;;;;23.17;10.57;;;8.10;99.90;;;;;;4970792;28;20383;-58
2022/11/30 09:53:09;;;;;;;;;;;8.10;99.90;;;;;;4980715;28;20114;-61
2022/11/30 09:55:40;;;;;;;;;;;8.10;99.90;;;;;;4959995;28;19918;-60
2022/11/30 09:58:10;;;;;;;19.00;9.23;;;8.10;99.90;;;;;;4981825;28;19909;-59
2022/11/30 10:00:38;;;;;;;19.33;11.35;;;8.10;99.90;;;;;;4969185;28;20100;-59
2022/11/30 10:03:04;;;;;;;19.60;8.68;;;8.10;99.90;;;;;;4971468;28;20023;-60
2022/11/30 10:05:47;;;;;;;22.15;9.95;;;8.30;99.90;;;;;;4968397;28;20114;-60
2022/11/30 10:08:37;;;;;;;24.25;11.38;;;8.40;99.90;;;;;;4975191;28;20542;-61
2022/11/30 10:11:21;;;;;;;18.60;9.63;;;8.50;99.90;;;;;;4971344;28;20046;-59
2022/11/30 10:14:12;;;;;;;17.60;8.25;;;8.60;99.90;;;;;;4966918;28;20015;-60
2022/11/30 10:17:05;;;;;;;16.00;7.35;;;8.50;99.90;;;;;;4976154;28;20019;-60
2022/11/30 10:19:48;;;;;;;17.95;7.30;;;8.40;99.90;;;;;;4966938;28;20038;-58
2022/11/30 10:22:45;;;;;;;17.42;8.13;;;8.30;99.90;;;;;;4967861;28;20566;-60
2022/11/30 10:25:19;;;;;;;13.27;7.32;;;8.30;99.90;;;;;;4974215;28;20022;-59
2022/11/30 10:27:49;;;;;;;18.63;7.07;;;8.30;99.90;;;;;;4967310;28;20435;-59
2022/11/30 10:30:22;;;;;;;19.25;8.07;;;8.40;99.90;;;;;;4967705;28;20054;-61
2022/11/30 10:32:52;;;;;;;11.43;6.35;;;8.50;99.90;;;;;;4966856;28;20033;-61
2022/11/30 10:35:28;;;;;;;12.38;5.93;;;8.50;99.90;;;;;;4969033;28;20434;-60
2022/11/30 10:37:57;;;;;;;12.73;6.57;;;8.50;99.90;;;;;;4971594;28;20035;-60
2022/11/30 10:40:37;;;;;;;9.80;5.25;;;8.50;99.90;;;;;;4967726;28;20038;-60
2022/11/30 10:43:26;;;;;;;14.30;6.55;;;8.40;99.90;;;;;;4974589;28;20034;-60
2022/11/30 10:45:51;;;;;;;12.77;4.32;;;8.40;99.90;;;;;;4966723;28;20030;-59
2022/11/30 10:49:22;;;;;;;6.90;3.90;;;8.30;99.90;;;;;;4974415;28;20037;-61
2022/11/30 10:51:53;;;;;;;10.82;3.80;;;8.30;99.90;;;;;;4909311;29;20050;-60
2022/11/30 10:54:21;;;;;;;9.13;3.83;;;8.30;99.90;;;;;;4911373;29;20051;-60
2022/11/30 10:56:47;;;;;;;9.13;3.97;;;8.30;99.90;;;;;;4909985;29;20119;-60
2022/11/30 10:59:22;;;;;;;8.93;3.63;;;8.30;99.90;;;;;;4911796;29;20505;-60
2022/11/30 11:01:50;;;;;;;7.38;3.28;;;8.40;99.90;;;;;;4908941;29;20039;-60
2022/11/30 11:04:24;;;;;;;9.02;3.88;;;8.40;99.90;;;;;;4908798;29;20123;-60
2022/11/30 11:06:58;;;;;;;9.85;4.15;;;8.30;99.90;;;;;;4909241;29;20421;-61
2022/11/30 11:09:48;;;;;;;11.07;4.20;;;8.40;99.90;;;;;;4910218;29;20044;-61
2022/11/30 11:12:24;;;;;;;12.32;6.68;;;8.40;99.90;;;;;;4909442;29;20536;-61
2022/11/30 11:15:16;;;;;;;12.98;7.38;;;8.80;99.90;;;;;;4906375;29;20085;-62
2022/11/30 11:17:41;;;;;;;10.02;5.15;;;9.00;99.90;;;;;;4909345;29;20088;-61
2022/11/30 11:20:45;;;;;;;9.02;4.78;;;9.10;99.90;;;;;;4909436;29;20024;-61
2022/11/30 11:23:36;;;;;;;8.15;4.03;;;9.20;99.90;;;;;;4926296;29;20043;-62
2022/11/30 11:26:04;;;;;;;11.73;4.03;;;9.50;99.90;;;;;;4927777;29;20119;-61
2022/11/30 11:28:30;;;;;;;8.18;3.70;;;9.90;99.90;;;;;;4934691;28;20044;-61
2022/11/30 11:30:57;;;;;;;5.63;2.55;;;10.40;99.90;;;;;;4929970;29;20055;-60
2022/11/30 11:33:28;;;;;;;6.00;2.60;;;10.90;99.90;;;;;;4929691;28;20032;-61
2022/11/30 11:36:06;;;;;;;7.05;2.38;;;11.50;99.90;;;;;;4931767;29;20027;-61
2022/11/30 11:38:42;;;;;;;9.00;2.90;;;11.90;99.90;;;;;;4935408;28;20169;-62
2022/11/30 11:41:34;;;;;;;5.28;2.10;;;12.30;99.90;;;;;;4933875;29;20053;-61
2022/11/30 11:44:09;;;;;;;5.75;2.30;;;12.60;99.90;;;;;;4927832;29;20475;-61
2022/11/30 11:46:55;;;;;;;5.35;2.17;;;13.10;99.90;;;;;;4929458;29;20034;-60
2022/11/30 11:49:28;;;;;;;3.78;1.75;;;13.50;99.90;;;;;;4928248;29;20141;-62
2022/11/30 11:52:03;;;;;;;3.92;2.05;;;13.50;99.90;;;;;;4914382;29;20039;-61
2022/11/30 11:54:31;;;;;;;3.15;1.77;;;13.50;99.90;;;;;;4957894;28;20042;-61
2022/11/30 11:56:58;;;;;;;8.68;2.75;;;13.50;99.90;;;;;;4964562;28;20031;-61
2022/11/30 11:59:48;;;;;;;5.80;2.63;;;13.50;99.90;;;;;;4967713;28;20035;-60
2022/11/30 12:02:26;;;;;;;8.32;2.20;;;13.40;99.90;;;;;;4964300;28;20034;-63
2022/11/30 12:05:14;;;;;;;3.65;2.30;;;13.50;99.90;;;;;;4967362;28;20027;-61
2022/11/30 12:08:02;;;;;;;4.95;2.38;;;13.60;99.90;;;;;;4962881;28;20054;-60
2022/11/30 12:10:37;;;;;;;4.45;2.17;;;13.80;99.90;;;;;;4966116;28;20042;-61
2022/11/30 12:13:15;;;;;;;6.88;2.25;;;13.70;99.90;;;;;;4965446;28;20027;-62
2022/11/30 12:16:18;;;;;;;4.28;2.08;;;13.30;99.90;;;;;;4967309;28;20038;-61
2022/11/30 12:18:57;;;;;;;8.90;3.03;;;12.80;99.90;;;;;;4969598;28;20031;-61
2022/11/30 12:21:45;;;;;;;4.50;2.67;;;12.90;99.90;;;;;;4967536;28;20042;-60
2022/11/30 12:24:33;;;;;;;6.22;3.00;;;12.90;99.90;;;;;;4964137;28;20062;-60
2022/11/30 12:27:02;;;;;;;5.38;1.77;;;13.30;99.90;;;;;;4963547;28;20027;-61
2022/11/30 12:29:51;;;;;;;5.63;2.15;;;13.40;99.90;;;;;;4968411;28;20081;-61
2022/11/30 12:32:51;;;;;;;21.92;3.45;;;13.40;99.90;;;;;;4969951;28;20037;-60
2022/11/30 12:35:44;;;;;;;4.18;1.80;;;13.20;99.90;;;;;;4965950;28;20503;-62
2022/11/30 12:38:43;;;;;;;7.68;1.92;;;12.90;99.90;;;;;;4967390;28;20035;-61
2022/11/30 12:41:38;;;;;;;9.95;2.88;;;12.40;99.90;;;;;;4968823;28;20030;-59
2022/11/30 12:44:16;;;;;;;8.23;2.45;;;12.20;99.90;;;;;;4968155;28;20106;-60
2022/11/30 12:47:15;;;;;;;5.88;1.77;;;12.20;99.90;;;;;;4962998;28;20031;-60
2022/11/30 12:49:44;;;;;;;8.75;2.10;;;12.30;99.90;;;;;;4964196;28;20074;-59
2022/11/30 12:52:35;;;;;;;5.68;1.92;;;12.80;99.90;;;;;;4964731;28;20031;-60
2022/11/30 12:55:12;;;;;;;6.00;2.55;;;13.60;99.90;;;;;;4963960;28;20034;-61
2022/11/30 12:58:12;;;;;;;4.00;1.40;;;14.50;99.90;;;;;;4963702;28;20047;-61
2022/11/30 13:00:46;;;;;;;5.68;2.05;;;15.30;99.90;;;;;;4964082;28;20468;-61